0FD9 weather

Joy Farms Airport
Defuniak Springs, Florida, United States

Public forecast

Using degrees Fahrenheit for public forecast. Weather courtesy of forecast.io.

METAR (pilot weather report)

Closest report is Defuniak Springs Airport, 5.2 nm (9.7 km) NNW. Retrieved 2017/10/21 13:35 UTC (0 seconds ago):

K54J 211335Z AUTO 09007KT 10SM CLR 20/17 A3019 RMK AO2 T01950173

TAF (pilot weather forecast)

Forecast is more than 6 hours old.

Closest forecast is Duke Field, 21.4 nm (39.6 km) W. Retrieved 2017/10/21 01:06 UTC (12 hours ago):

TAF KEGI 210100Z 2101/2207 04005KT 9999 SCT040 BKN250 QNH3007INS BECMG 2114/2115 10010KT 9999 SCT035 BKN250 QNH3002INS BECMG 2122/2123 11006KT 9999 SCT025 BKN250 QNH3005INS TX28/2118Z TN15/2112Z FCST BY USAF WX MET TECH